sensor_id;sensor_type;location;lat;lon;timestamp;temperature;humidity
40996;DHT22;26723;57.478;12.066;2023-03-23T00:00:20;5.40;99.90
40996;DHT22;26723;57.478;12.066;2023-03-23T00:03:27;5.40;99.90
40996;DHT22;26723;57.478;12.066;2023-03-23T00:06:37;5.30;99.90
40996;DHT22;26723;57.478;12.066;2023-03-23T00:09:45;5.40;99.90
40996;DHT22;26723;57.478;12.066;2023-03-23T00:12:54;5.30;99.90
40996;DHT22;26723;57.478;12.066;2023-03-23T00:16:02;5.40;99.90
40996;DHT22;26723;57.478;12.066;2023-03-23T00:19:11;5.40;99.90
40996;DHT22;26723;57.478;12.066;2023-03-23T00:22:19;5.50;99.90
40996;DHT22;26723;57.478;12.066;2023-03-23T00:25:26;5.40;99.90
40996;DHT22;26723;57.478;12.066;2023-03-23T00:28:35;5.40;99.90
40996;DHT22;26723;57.478;12.066;2023-03-23T00:31:45;5.40;99.90
40996;DHT22;26723;57.478;12.066;2023-03-23T00:34:53;5.40;99.90
40996;DHT22;26723;57.478;12.066;2023-03-23T00:38:02;5.40;99.90
40996;DHT22;26723;57.478;12.066;2023-03-23T00:41:10;5.40;99.90
40996;DHT22;26723;57.478;12.066;2023-03-23T00:44:19;5.40;99.90
40996;DHT22;26723;57.478;12.066;2023-03-23T00:47:29;5.40;99.90
40996;DHT22;26723;57.478;12.066;2023-03-23T00:50:37;5.30;99.90
40996;DHT22;26723;57.478;12.066;2023-03-23T00:53:44;5.40;99.90
40996;DHT22;26723;57.478;12.066;2023-03-23T00:56:52;5.30;99.90
40996;DHT22;26723;57.478;12.066;2023-03-23T01:00:01;5.30;99.90
40996;DHT22;26723;57.478;12.066;2023-03-23T01:03:10;5.30;99.90
40996;DHT22;26723;57.478;12.066;2023-03-23T01:06:24;5.30;99.90
40996;DHT22;26723;57.478;12.066;2023-03-23T01:09:31;5.30;99.90
40996;DHT22;26723;57.478;12.066;2023-03-23T01:12:39;5.40;99.90
40996;DHT22;26723;57.478;12.066;2023-03-23T01:15:48;5.40;99.90
40996;DHT22;26723;57.478;12.066;2023-03-23T01:18:55;5.40;99.90
40996;DHT22;26723;57.478;12.066;2023-03-23T01:22:03;5.40;99.90
40996;DHT22;26723;57.478;12.066;2023-03-23T01:25:11;5.30;99.90
40996;DHT22;26723;57.478;12.066;2023-03-23T01:28:19;5.30;99.90
40996;DHT22;26723;57.478;12.066;2023-03-23T01:31:27;5.20;99.90
40996;DHT22;26723;57.478;12.066;2023-03-23T01:34:36;5.20;99.90
40996;DHT22;26723;57.478;12.066;2023-03-23T01:37:43;5.30;99.90
40996;DHT22;26723;57.478;12.066;2023-03-23T01:40:50;5.20;99.90
40996;DHT22;26723;57.478;12.066;2023-03-23T01:44:00;5.20;99.90
40996;DHT22;26723;57.478;12.066;2023-03-23T01:47:13;5.10;99.90
40996;DHT22;26723;57.478;12.066;2023-03-23T01:50:22;5.10;99.90
40996;DHT22;26723;57.478;12.066;2023-03-23T01:53:35;5.10;99.90
40996;DHT22;26723;57.478;12.066;2023-03-23T01:56:47;5.10;99.90
40996;DHT22;26723;57.478;12.066;2023-03-23T01:59:55;5.20;99.90
40996;DHT22;26723;57.478;12.066;2023-03-23T02:03:21;5.20;99.90
40996;DHT22;26723;57.478;12.066;2023-03-23T02:06:30;5.30;99.90
40996;DHT22;26723;57.478;12.066;2023-03-23T02:09:53;5.40;99.90
40996;DHT22;26723;57.478;12.066;2023-03-23T02:13:01;5.50;99.90
40996;DHT22;26723;57.478;12.066;2023-03-23T02:16:14;5.50;99.90
40996;DHT22;26723;57.478;12.066;2023-03-23T02:19:39;5.50;99.90
40996;DHT22;26723;57.478;12.066;2023-03-23T02:23:09;5.60;99.90
40996;DHT22;26723;57.478;12.066;2023-03-23T02:26:36;5.60;99.90
40996;DHT22;26723;57.478;12.066;2023-03-23T02:29:54;5.60;99.90
40996;DHT22;26723;57.478;12.066;2023-03-23T02:33:38;5.60;99.90
40996;DHT22;26723;57.478;12.066;2023-03-23T02:36:49;5.70;99.90
40996;DHT22;26723;57.478;12.066;2023-03-23T02:40:04;5.60;99.90
40996;DHT22;26723;57.478;12.066;2023-03-23T02:43:15;5.60;99.90
40996;DHT22;26723;57.478;12.066;2023-03-23T02:46:25;5.60;99.90
40996;DHT22;26723;57.478;12.066;2023-03-23T02:49:38;5.70;99.90
40996;DHT22;26723;57.478;12.066;2023-03-23T02:52:48;5.70;99.90
40996;DHT22;26723;57.478;12.066;2023-03-23T02:55:57;5.80;99.90
40996;DHT22;26723;57.478;12.066;2023-03-23T02:59:08;5.70;99.90
40996;DHT22;26723;57.478;12.066;2023-03-23T03:02:17;5.70;99.90
40996;DHT22;26723;57.478;12.066;2023-03-23T03:05:35;5.70;99.90
40996;DHT22;26723;57.478;12.066;2023-03-23T03:08:48;5.70;99.90
40996;DHT22;26723;57.478;12.066;2023-03-23T03:12:02;5.70;99.90
40996;DHT22;26723;57.478;12.066;2023-03-23T03:15:21;5.70;99.90
40996;DHT22;26723;57.478;12.066;2023-03-23T03:18:34;5.60;99.90
40996;DHT22;26723;57.478;12.066;2023-03-23T03:21:47;5.30;99.90
40996;DHT22;26723;57.478;12.066;2023-03-23T03:25:01;5.20;99.90
40996;DHT22;26723;57.478;12.066;2023-03-23T03:28:09;5.20;99.90
40996;DHT22;26723;57.478;12.066;2023-03-23T03:31:27;5.10;99.90
40996;DHT22;26723;57.478;12.066;2023-03-23T03:34:35;5.10;99.90
40996;DHT22;26723;57.478;12.066;2023-03-23T03:37:45;5.10;99.90
40996;DHT22;26723;57.478;12.066;2023-03-23T03:40:54;5.10;99.90
40996;DHT22;26723;57.478;12.066;2023-03-23T03:44:03;5.10;99.90
40996;DHT22;26723;57.478;12.066;2023-03-23T03:47:11;5.00;99.90
40996;DHT22;26723;57.478;12.066;2023-03-23T03:50:18;5.00;99.90
40996;DHT22;26723;57.478;12.066;2023-03-23T03:53:27;5.00;99.90
40996;DHT22;26723;57.478;12.066;2023-03-23T03:56:34;5.00;99.90
40996;DHT22;26723;57.478;12.066;2023-03-23T03:59:59;5.00;99.90
40996;DHT22;26723;57.478;12.066;2023-03-23T04:03:21;5.00;99.90
40996;DHT22;26723;57.478;12.066;2023-03-23T04:06:40;5.00;99.90
40996;DHT22;26723;57.478;12.066;2023-03-23T04:09:49;5.10;99.90
40996;DHT22;26723;57.478;12.066;2023-03-23T04:12:59;5.00;99.90
40996;DHT22;26723;57.478;12.066;2023-03-23T04:16:36;5.10;99.90
40996;DHT22;26723;57.478;12.066;2023-03-23T04:19:43;5.10;99.90
40996;DHT22;26723;57.478;12.066;2023-03-23T04:22:51;5.10;99.90
40996;DHT22;26723;57.478;12.066;2023-03-23T04:26:05;5.00;99.90
40996;DHT22;26723;57.478;12.066;2023-03-23T04:29:19;5.00;99.90
40996;DHT22;26723;57.478;12.066;2023-03-23T04:32:50;5.10;99.90
40996;DHT22;26723;57.478;12.066;2023-03-23T04:36:03;5.10;99.90
40996;DHT22;26723;57.478;12.066;2023-03-23T04:39:17;5.10;99.90
40996;DHT22;26723;57.478;12.066;2023-03-23T04:42:28;5.10;99.90
40996;DHT22;26723;57.478;12.066;2023-03-23T04:46:02;5.20;99.90
40996;DHT22;26723;57.478;12.066;2023-03-23T04:49:15;5.20;99.90
40996;DHT22;26723;57.478;12.066;2023-03-23T04:52:29;5.20;99.90
40996;DHT22;26723;57.478;12.066;2023-03-23T04:55:38;5.20;99.90
40996;DHT22;26723;57.478;12.066;2023-03-23T04:58:50;5.10;99.90
40996;DHT22;26723;57.478;12.066;2023-03-23T05:02:16;5.00;99.90
40996;DHT22;26723;57.478;12.066;2023-03-23T05:05:26;5.10;99.90
40996;DHT22;26723;57.478;12.066;2023-03-23T05:08:36;5.10;99.90
40996;DHT22;26723;57.478;12.066;2023-03-23T05:11:45;5.20;99.90
40996;DHT22;26723;57.478;12.066;2023-03-23T05:14:54;5.20;99.90
40996;DHT22;26723;57.478;12.066;2023-03-23T05:18:05;5.20;99.90
40996;DHT22;26723;57.478;12.066;2023-03-23T05:21:13;5.30;99.90
40996;DHT22;26723;57.478;12.066;2023-03-23T05:24:25;5.30;99.90
40996;DHT22;26723;57.478;12.066;2023-03-23T05:27:37;5.40;99.90
40996;DHT22;26723;57.478;12.066;2023-03-23T05:30:58;5.40;99.90
40996;DHT22;26723;57.478;12.066;2023-03-23T05:34:10;5.40;99.90
40996;DHT22;26723;57.478;12.066;2023-03-23T05:37:27;5.40;99.90
40996;DHT22;26723;57.478;12.066;2023-03-23T05:40:46;5.40;99.90
40996;DHT22;26723;57.478;12.066;2023-03-23T05:43:57;5.40;99.90
40996;DHT22;26723;57.478;12.066;2023-03-23T05:47:25;5.50;99.90
40996;DHT22;26723;57.478;12.066;2023-03-23T05:50:37;5.50;99.90
40996;DHT22;26723;57.478;12.066;2023-03-23T05:53:45;5.50;99.90
40996;DHT22;26723;57.478;12.066;2023-03-23T05:56:55;5.50;99.90
40996;DHT22;26723;57.478;12.066;2023-03-23T06:00:15;5.50;99.90
40996;DHT22;26723;57.478;12.066;2023-03-23T06:03:29;5.60;99.90
40996;DHT22;26723;57.478;12.066;2023-03-23T06:06:45;5.60;99.90
40996;DHT22;26723;57.478;12.066;2023-03-23T06:09:54;5.60;99.90
40996;DHT22;26723;57.478;12.066;2023-03-23T06:13:04;5.60;99.90
40996;DHT22;26723;57.478;12.066;2023-03-23T06:16:17;5.60;99.90
40996;DHT22;26723;57.478;12.066;2023-03-23T06:19:38;5.70;99.90
40996;DHT22;26723;57.478;12.066;2023-03-23T06:22:58;5.70;99.90
40996;DHT22;26723;57.478;12.066;2023-03-23T06:26:10;5.70;99.90
40996;DHT22;26723;57.478;12.066;2023-03-23T06:29:21;5.80;99.90
40996;DHT22;26723;57.478;12.066;2023-03-23T06:32:33;5.80;99.90
40996;DHT22;26723;57.478;12.066;2023-03-23T06:35:45;5.90;99.90
40996;DHT22;26723;57.478;12.066;2023-03-23T06:38:56;6.00;99.90
40996;DHT22;26723;57.478;12.066;2023-03-23T06:42:12;6.00;99.90
40996;DHT22;26723;57.478;12.066;2023-03-23T06:45:25;6.00;99.90
40996;DHT22;26723;57.478;12.066;2023-03-23T06:48:51;6.10;99.90
40996;DHT22;26723;57.478;12.066;2023-03-23T06:52:06;6.10;99.90
40996;DHT22;26723;57.478;12.066;2023-03-23T06:55:14;6.10;99.90
40996;DHT22;26723;57.478;12.066;2023-03-23T06:58:23;6.20;99.90
40996;DHT22;26723;57.478;12.066;2023-03-23T07:01:31;6.30;99.90
40996;DHT22;26723;57.478;12.066;2023-03-23T07:04:40;6.30;99.90
40996;DHT22;26723;57.478;12.066;2023-03-23T07:07:58;6.40;99.90
40996;DHT22;26723;57.478;12.066;2023-03-23T07:11:11;6.40;99.90
40996;DHT22;26723;57.478;12.066;2023-03-23T07:14:19;6.50;99.90
40996;DHT22;26723;57.478;12.066;2023-03-23T07:17:28;6.50;99.90
40996;DHT22;26723;57.478;12.066;2023-03-23T07:20:53;6.50;99.90
40996;DHT22;26723;57.478;12.066;2023-03-23T07:24:10;6.70;99.90
40996;DHT22;26723;57.478;12.066;2023-03-23T07:27:39;6.80;99.90
40996;DHT22;26723;57.478;12.066;2023-03-23T07:30:47;7.00;99.90
40996;DHT22;26723;57.478;12.066;2023-03-23T07:33:55;7.00;99.90
40996;DHT22;26723;57.478;12.066;2023-03-23T07:37:10;7.10;99.90
40996;DHT22;26723;57.478;12.066;2023-03-23T07:40:22;7.20;99.90
40996;DHT22;26723;57.478;12.066;2023-03-23T07:43:32;7.20;99.90
40996;DHT22;26723;57.478;12.066;2023-03-23T07:46:58;7.30;99.90
40996;DHT22;26723;57.478;12.066;2023-03-23T07:50:11;7.30;99.90
40996;DHT22;26723;57.478;12.066;2023-03-23T07:53:22;7.30;99.90
40996;DHT22;26723;57.478;12.066;2023-03-23T07:56:50;7.30;99.90
40996;DHT22;26723;57.478;12.066;2023-03-23T08:00:05;7.20;99.90
40996;DHT22;26723;57.478;12.066;2023-03-23T08:03:21;7.20;99.90
40996;DHT22;26723;57.478;12.066;2023-03-23T08:06:46;7.30;99.90
40996;DHT22;26723;57.478;12.066;2023-03-23T08:10:14;7.30;99.90
40996;DHT22;26723;57.478;12.066;2023-03-23T08:13:56;7.40;99.90
40996;DHT22;26723;57.478;12.066;2023-03-23T08:17:29;7.40;99.90
40996;DHT22;26723;57.478;12.066;2023-03-23T08:20:46;7.50;99.90
40996;DHT22;26723;57.478;12.066;2023-03-23T08:24:23;7.50;99.90
40996;DHT22;26723;57.478;12.066;2023-03-23T08:28:00;7.50;99.90
40996;DHT22;26723;57.478;12.066;2023-03-23T08:31:19;7.40;99.90
40996;DHT22;26723;57.478;12.066;2023-03-23T08:35:06;7.40;99.90
40996;DHT22;26723;57.478;12.066;2023-03-23T08:38:17;7.30;99.90
40996;DHT22;26723;57.478;12.066;2023-03-23T08:41:59;7.30;99.90
40996;DHT22;26723;57.478;12.066;2023-03-23T08:45:33;7.30;99.90
40996;DHT22;26723;57.478;12.066;2023-03-23T08:48:50;7.40;99.90
40996;DHT22;26723;57.478;12.066;2023-03-23T08:52:26;7.40;99.90
40996;DHT22;26723;57.478;12.066;2023-03-23T08:56:10;7.40;99.90
40996;DHT22;26723;57.478;12.066;2023-03-23T08:59:53;7.30;99.90
40996;DHT22;26723;57.478;12.066;2023-03-23T09:03:20;7.20;99.90
40996;DHT22;26723;57.478;12.066;2023-03-23T09:06:51;7.20;99.90
40996;DHT22;26723;57.478;12.066;2023-03-23T09:09:58;7.20;99.90
40996;DHT22;26723;57.478;12.066;2023-03-23T09:13:06;7.20;99.90
40996;DHT22;26723;57.478;12.066;2023-03-23T09:16:13;7.30;99.90
40996;DHT22;26723;57.478;12.066;2023-03-23T09:19:21;7.20;99.90
40996;DHT22;26723;57.478;12.066;2023-03-23T09:22:29;7.20;99.90
40996;DHT22;26723;57.478;12.066;2023-03-23T09:25:37;7.30;99.90
40996;DHT22;26723;57.478;12.066;2023-03-23T09:28:45;7.20;99.90
40996;DHT22;26723;57.478;12.066;2023-03-23T09:31:52;7.20;99.90
40996;DHT22;26723;57.478;12.066;2023-03-23T09:34:59;7.20;99.90
40996;DHT22;26723;57.478;12.066;2023-03-23T09:38:09;7.20;99.90
40996;DHT22;26723;57.478;12.066;2023-03-23T09:41:36;7.10;99.90
40996;DHT22;26723;57.478;12.066;2023-03-23T09:44:56;7.40;99.90
40996;DHT22;26723;57.478;12.066;2023-03-23T09:48:34;7.30;99.90
40996;DHT22;26723;57.478;12.066;2023-03-23T09:51:44;7.40;99.90
40996;DHT22;26723;57.478;12.066;2023-03-23T09:54:55;7.30;99.90
40996;DHT22;26723;57.478;12.066;2023-03-23T09:58:10;7.20;99.90
40996;DHT22;26723;57.478;12.066;2023-03-23T10:01:23;7.20;99.90
40996;DHT22;26723;57.478;12.066;2023-03-23T10:04:37;7.30;99.90
40996;DHT22;26723;57.478;12.066;2023-03-23T10:07:45;7.20;99.90
40996;DHT22;26723;57.478;12.066;2023-03-23T10:11:03;7.20;99.90
40996;DHT22;26723;57.478;12.066;2023-03-23T10:14:21;7.20;99.90
40996;DHT22;26723;57.478;12.066;2023-03-23T10:17:34;7.10;99.90
40996;DHT22;26723;57.478;12.066;2023-03-23T10:20:48;7.10;99.90
40996;DHT22;26723;57.478;12.066;2023-03-23T10:23:58;7.10;99.90
40996;DHT22;26723;57.478;12.066;2023-03-23T10:27:17;7.10;99.90
40996;DHT22;26723;57.478;12.066;2023-03-23T10:30:30;7.10;99.90
40996;DHT22;26723;57.478;12.066;2023-03-23T10:33:41;7.00;99.90
40996;DHT22;26723;57.478;12.066;2023-03-23T10:36:59;6.90;99.90
40996;DHT22;26723;57.478;12.066;2023-03-23T10:40:15;6.90;99.90
40996;DHT22;26723;57.478;12.066;2023-03-23T10:43:25;7.00;99.90
40996;DHT22;26723;57.478;12.066;2023-03-23T10:46:43;7.00;99.90
40996;DHT22;26723;57.478;12.066;2023-03-23T10:49:56;6.90;99.90
40996;DHT22;26723;57.478;12.066;2023-03-23T10:53:14;6.90;99.90
40996;DHT22;26723;57.478;12.066;2023-03-23T10:56:24;7.00;99.90
40996;DHT22;26723;57.478;12.066;2023-03-23T10:59:33;6.90;99.90
40996;DHT22;26723;57.478;12.066;2023-03-23T11:02:42;6.90;99.90
40996;DHT22;26723;57.478;12.066;2023-03-23T11:05:53;6.90;99.90
40996;DHT22;26723;57.478;12.066;2023-03-23T11:09:02;6.90;99.90
40996;DHT22;26723;57.478;12.066;2023-03-23T11:12:17;6.90;99.90
40996;DHT22;26723;57.478;12.066;2023-03-23T11:15:31;6.90;99.90
40996;DHT22;26723;57.478;12.066;2023-03-23T11:18:42;6.90;99.90
40996;DHT22;26723;57.478;12.066;2023-03-23T11:21:51;7.00;99.90
40996;DHT22;26723;57.478;12.066;2023-03-23T11:25:01;7.00;99.90
40996;DHT22;26723;57.478;12.066;2023-03-23T11:28:09;7.20;99.90
40996;DHT22;26723;57.478;12.066;2023-03-23T11:31:21;7.50;99.90
40996;DHT22;26723;57.478;12.066;2023-03-23T11:34:31;7.70;99.90
40996;DHT22;26723;57.478;12.066;2023-03-23T11:37:41;7.80;99.90
40996;DHT22;26723;57.478;12.066;2023-03-23T11:40:51;7.90;99.90
40996;DHT22;26723;57.478;12.066;2023-03-23T11:44:03;7.90;99.90
40996;DHT22;26723;57.478;12.066;2023-03-23T11:47:22;7.60;99.90
40996;DHT22;26723;57.478;12.066;2023-03-23T11:50:33;7.30;99.90
40996;DHT22;26723;57.478;12.066;2023-03-23T11:53:47;7.30;99.90
40996;DHT22;26723;57.478;12.066;2023-03-23T11:56:55;7.10;99.90
40996;DHT22;26723;57.478;12.066;2023-03-23T12:00:12;7.10;99.90
40996;DHT22;26723;57.478;12.066;2023-03-23T12:03:45;7.10;99.90
40996;DHT22;26723;57.478;12.066;2023-03-23T12:07:02;7.10;99.90
40996;DHT22;26723;57.478;12.066;2023-03-23T12:10:23;7.20;99.90
40996;DHT22;26723;57.478;12.066;2023-03-23T12:17:17;7.10;99.90
40996;DHT22;26723;57.478;12.066;2023-03-23T12:20:34;7.20;99.90
40996;DHT22;26723;57.478;12.066;2023-03-23T12:23:47;7.20;99.90
40996;DHT22;26723;57.478;12.066;2023-03-23T12:27:01;7.30;99.90
40996;DHT22;26723;57.478;12.066;2023-03-23T12:30:24;7.40;99.90
40996;DHT22;26723;57.478;12.066;2023-03-23T12:33:43;7.50;99.90
40996;DHT22;26723;57.478;12.066;2023-03-23T12:37:09;7.60;99.90
40996;DHT22;26723;57.478;12.066;2023-03-23T12:43:52;7.70;99.90
40996;DHT22;26723;57.478;12.066;2023-03-23T12:47:14;7.70;99.90
40996;DHT22;26723;57.478;12.066;2023-03-23T12:50:28;7.70;99.90
40996;DHT22;26723;57.478;12.066;2023-03-23T12:53:43;7.70;99.90
40996;DHT22;26723;57.478;12.066;2023-03-23T12:56:57;7.70;99.90
40996;DHT22;26723;57.478;12.066;2023-03-23T13:00:14;7.80;99.90
40996;DHT22;26723;57.478;12.066;2023-03-23T13:03:28;7.80;99.90
40996;DHT22;26723;57.478;12.066;2023-03-23T13:06:40;7.90;99.90
40996;DHT22;26723;57.478;12.066;2023-03-23T13:09:53;8.00;99.90
40996;DHT22;26723;57.478;12.066;2023-03-23T13:13:02;8.00;99.90
40996;DHT22;26723;57.478;12.066;2023-03-23T13:16:15;8.00;99.90
40996;DHT22;26723;57.478;12.066;2023-03-23T13:19:30;8.10;99.90
40996;DHT22;26723;57.478;12.066;2023-03-23T13:22:44;8.00;99.90
40996;DHT22;26723;57.478;12.066;2023-03-23T13:25:59;8.00;99.90
40996;DHT22;26723;57.478;12.066;2023-03-23T13:29:11;8.00;99.90
40996;DHT22;26723;57.478;12.066;2023-03-23T13:32:20;8.10;99.90
40996;DHT22;26723;57.478;12.066;2023-03-23T13:35:34;8.00;99.90
40996;DHT22;26723;57.478;12.066;2023-03-23T13:38:47;7.90;99.90
40996;DHT22;26723;57.478;12.066;2023-03-23T13:42:18;7.90;99.90
40996;DHT22;26723;57.478;12.066;2023-03-23T13:45:42;7.90;99.90
40996;DHT22;26723;57.478;12.066;2023-03-23T13:48:51;8.10;99.90
40996;DHT22;26723;57.478;12.066;2023-03-23T13:52:17;8.20;99.90
40996;DHT22;26723;57.478;12.066;2023-03-23T13:55:41;8.20;99.90
40996;DHT22;26723;57.478;12.066;2023-03-23T13:58:51;8.30;99.90
40996;DHT22;26723;57.478;12.066;2023-03-23T14:06:00;8.40;99.90
40996;DHT22;26723;57.478;12.066;2023-03-23T14:09:14;8.60;99.90
40996;DHT22;26723;57.478;12.066;2023-03-23T14:12:26;8.70;99.90
40996;DHT22;26723;57.478;12.066;2023-03-23T14:15:42;8.90;99.90
40996;DHT22;26723;57.478;12.066;2023-03-23T14:18:54;8.90;99.90
40996;DHT22;26723;57.478;12.066;2023-03-23T14:22:04;9.00;99.90
40996;DHT22;26723;57.478;12.066;2023-03-23T14:25:13;9.00;99.90
40996;DHT22;26723;57.478;12.066;2023-03-23T14:28:21;9.10;99.90
40996;DHT22;26723;57.478;12.066;2023-03-23T14:31:30;9.20;99.90
40996;DHT22;26723;57.478;12.066;2023-03-23T14:34:37;9.10;99.90
40996;DHT22;26723;57.478;12.066;2023-03-23T14:37:45;9.00;99.90
40996;DHT22;26723;57.478;12.066;2023-03-23T14:40:54;9.10;99.90
40996;DHT22;26723;57.478;12.066;2023-03-23T14:44:03;9.10;99.90
40996;DHT22;26723;57.478;12.066;2023-03-23T14:47:17;9.10;99.90
40996;DHT22;26723;57.478;12.066;2023-03-23T14:50:28;9.10;99.90
40996;DHT22;26723;57.478;12.066;2023-03-23T14:53:37;9.20;99.90
40996;DHT22;26723;57.478;12.066;2023-03-23T14:56:45;9.20;99.90
40996;DHT22;26723;57.478;12.066;2023-03-23T14:59:52;9.20;99.90
40996;DHT22;26723;57.478;12.066;2023-03-23T15:03:03;9.10;99.90
40996;DHT22;26723;57.478;12.066;2023-03-23T15:06:16;9.10;99.90
40996;DHT22;26723;57.478;12.066;2023-03-23T15:09:25;9.10;99.90
40996;DHT22;26723;57.478;12.066;2023-03-23T15:12:33;9.10;99.90
40996;DHT22;26723;57.478;12.066;2023-03-23T15:15:41;9.10;99.90
40996;DHT22;26723;57.478;12.066;2023-03-23T15:18:53;9.20;99.90
40996;DHT22;26723;57.478;12.066;2023-03-23T15:22:05;9.20;99.90
40996;DHT22;26723;57.478;12.066;2023-03-23T15:25:20;9.10;99.90
40996;DHT22;26723;57.478;12.066;2023-03-23T15:28:32;9.10;99.90
40996;DHT22;26723;57.478;12.066;2023-03-23T15:31:40;9.10;99.90
40996;DHT22;26723;57.478;12.066;2023-03-23T15:34:50;9.00;99.90
40996;DHT22;26723;57.478;12.066;2023-03-23T15:37:59;9.00;99.90
40996;DHT22;26723;57.478;12.066;2023-03-23T15:41:21;8.90;99.90
40996;DHT22;26723;57.478;12.066;2023-03-23T15:44:32;8.90;99.90
40996;DHT22;26723;57.478;12.066;2023-03-23T15:47:44;8.90;99.90
40996;DHT22;26723;57.478;12.066;2023-03-23T15:50:54;8.90;99.90
40996;DHT22;26723;57.478;12.066;2023-03-23T15:54:01;8.90;99.90
40996;DHT22;26723;57.478;12.066;2023-03-23T15:57:10;8.90;99.90
40996;DHT22;26723;57.478;12.066;2023-03-23T16:00:20;8.80;99.90
40996;DHT22;26723;57.478;12.066;2023-03-23T16:03:34;8.80;99.90
40996;DHT22;26723;57.478;12.066;2023-03-23T16:06:45;8.70;99.90
40996;DHT22;26723;57.478;12.066;2023-03-23T16:09:54;8.70;99.90
40996;DHT22;26723;57.478;12.066;2023-03-23T16:13:02;8.70;99.90
40996;DHT22;26723;57.478;12.066;2023-03-23T16:16:15;8.60;99.90
40996;DHT22;26723;57.478;12.066;2023-03-23T16:19:24;8.60;99.90
40996;DHT22;26723;57.478;12.066;2023-03-23T16:22:33;8.60;99.90
40996;DHT22;26723;57.478;12.066;2023-03-23T16:25:42;8.60;99.90
40996;DHT22;26723;57.478;12.066;2023-03-23T16:28:51;8.60;99.90
40996;DHT22;26723;57.478;12.066;2023-03-23T16:32:16;8.60;99.90
40996;DHT22;26723;57.478;12.066;2023-03-23T16:35:25;8.60;99.90
40996;DHT22;26723;57.478;12.066;2023-03-23T16:38:34;8.60;99.90
40996;DHT22;26723;57.478;12.066;2023-03-23T16:41:57;8.50;99.90
40996;DHT22;26723;57.478;12.066;2023-03-23T16:45:06;8.50;99.90
40996;DHT22;26723;57.478;12.066;2023-03-23T16:48:16;8.50;99.90
40996;DHT22;26723;57.478;12.066;2023-03-23T16:51:24;8.50;99.90
40996;DHT22;26723;57.478;12.066;2023-03-23T16:54:34;8.40;99.90
40996;DHT22;26723;57.478;12.066;2023-03-23T16:57:42;8.40;99.90
40996;DHT22;26723;57.478;12.066;2023-03-23T17:00:51;8.30;99.90
40996;DHT22;26723;57.478;12.066;2023-03-23T17:04:00;8.30;99.90
40996;DHT22;26723;57.478;12.066;2023-03-23T17:07:08;8.30;99.90
40996;DHT22;26723;57.478;12.066;2023-03-23T17:10:18;8.20;99.90
40996;DHT22;26723;57.478;12.066;2023-03-23T17:13:27;8.20;99.90
40996;DHT22;26723;57.478;12.066;2023-03-23T17:16:42;8.10;99.90
40996;DHT22;26723;57.478;12.066;2023-03-23T17:19:50;8.10;99.90
40996;DHT22;26723;57.478;12.066;2023-03-23T17:22:59;8.00;99.90
40996;DHT22;26723;57.478;12.066;2023-03-23T17:26:09;8.00;99.90
40996;DHT22;26723;57.478;12.066;2023-03-23T17:29:17;7.90;99.90
40996;DHT22;26723;57.478;12.066;2023-03-23T17:32:28;7.80;99.90
40996;DHT22;26723;57.478;12.066;2023-03-23T17:35:37;7.80;99.90
40996;DHT22;26723;57.478;12.066;2023-03-23T17:38:45;7.70;99.90
40996;DHT22;26723;57.478;12.066;2023-03-23T17:41:55;7.60;99.90
40996;DHT22;26723;57.478;12.066;2023-03-23T17:45:04;7.60;99.90
40996;DHT22;26723;57.478;12.066;2023-03-23T17:48:13;7.60;99.90
40996;DHT22;26723;57.478;12.066;2023-03-23T17:51:22;7.50;99.90
40996;DHT22;26723;57.478;12.066;2023-03-23T17:54:31;7.50;99.90
40996;DHT22;26723;57.478;12.066;2023-03-23T17:57:41;7.50;99.90
40996;DHT22;26723;57.478;12.066;2023-03-23T18:00:53;7.40;99.90
40996;DHT22;26723;57.478;12.066;2023-03-23T18:04:03;7.40;99.90
40996;DHT22;26723;57.478;12.066;2023-03-23T18:07:12;7.30;99.90
40996;DHT22;26723;57.478;12.066;2023-03-23T18:10:20;7.20;99.90
40996;DHT22;26723;57.478;12.066;2023-03-23T18:13:33;7.10;99.90
40996;DHT22;26723;57.478;12.066;2023-03-23T18:16:42;7.00;99.90
40996;DHT22;26723;57.478;12.066;2023-03-23T18:19:51;6.90;99.90
40996;DHT22;26723;57.478;12.066;2023-03-23T18:22:59;6.80;99.90
40996;DHT22;26723;57.478;12.066;2023-03-23T18:26:10;6.80;99.90
40996;DHT22;26723;57.478;12.066;2023-03-23T18:29:21;6.70;99.90
40996;DHT22;26723;57.478;12.066;2023-03-23T18:32:29;6.70;99.90
40996;DHT22;26723;57.478;12.066;2023-03-23T18:35:38;6.60;99.90
40996;DHT22;26723;57.478;12.066;2023-03-23T18:38:47;6.70;99.90
40996;DHT22;26723;57.478;12.066;2023-03-23T18:41:57;6.70;99.90
40996;DHT22;26723;57.478;12.066;2023-03-23T18:45:07;6.60;99.90
40996;DHT22;26723;57.478;12.066;2023-03-23T18:48:16;6.60;99.90
40996;DHT22;26723;57.478;12.066;2023-03-23T18:51:25;6.40;99.90
40996;DHT22;26723;57.478;12.066;2023-03-23T18:54:33;6.40;99.90
40996;DHT22;26723;57.478;12.066;2023-03-23T18:57:44;6.30;99.90
40996;DHT22;26723;57.478;12.066;2023-03-23T19:00:55;6.40;99.90
40996;DHT22;26723;57.478;12.066;2023-03-23T19:04:04;6.30;99.90
40996;DHT22;26723;57.478;12.066;2023-03-23T19:07:14;6.40;99.90
40996;DHT22;26723;57.478;12.066;2023-03-23T19:10:23;6.40;99.90
40996;DHT22;26723;57.478;12.066;2023-03-23T19:13:32;6.40;99.90
40996;DHT22;26723;57.478;12.066;2023-03-23T19:16:45;6.50;99.90
40996;DHT22;26723;57.478;12.066;2023-03-23T19:19:53;6.60;99.90
40996;DHT22;26723;57.478;12.066;2023-03-23T19:23:04;6.60;99.90
40996;DHT22;26723;57.478;12.066;2023-03-23T19:26:20;6.60;99.90
40996;DHT22;26723;57.478;12.066;2023-03-23T19:29:29;6.60;99.90
40996;DHT22;26723;57.478;12.066;2023-03-23T19:32:39;6.60;99.90
40996;DHT22;26723;57.478;12.066;2023-03-23T19:35:48;6.60;99.90
40996;DHT22;26723;57.478;12.066;2023-03-23T19:39:16;6.70;99.90
40996;DHT22;26723;57.478;12.066;2023-03-23T19:42:25;6.70;99.90
40996;DHT22;26723;57.478;12.066;2023-03-23T19:45:34;6.70;99.90
40996;DHT22;26723;57.478;12.066;2023-03-23T19:48:44;6.70;99.90
40996;DHT22;26723;57.478;12.066;2023-03-23T19:51:54;6.70;99.90
40996;DHT22;26723;57.478;12.066;2023-03-23T19:55:16;6.80;99.90
40996;DHT22;26723;57.478;12.066;2023-03-23T19:58:25;6.80;99.90
40996;DHT22;26723;57.478;12.066;2023-03-23T20:01:34;6.80;99.90
40996;DHT22;26723;57.478;12.066;2023-03-23T20:04:44;6.90;99.90
40996;DHT22;26723;57.478;12.066;2023-03-23T20:07:53;6.90;99.90
40996;DHT22;26723;57.478;12.066;2023-03-23T20:11:04;6.90;99.90
40996;DHT22;26723;57.478;12.066;2023-03-23T20:14:13;6.90;99.90
40996;DHT22;26723;57.478;12.066;2023-03-23T20:17:24;6.90;99.90
40996;DHT22;26723;57.478;12.066;2023-03-23T20:20:33;7.00;99.90
40996;DHT22;26723;57.478;12.066;2023-03-23T20:23:43;7.00;99.90
40996;DHT22;26723;57.478;12.066;2023-03-23T20:26:52;6.90;99.90
40996;DHT22;26723;57.478;12.066;2023-03-23T20:30:01;7.00;99.90